Time;durP1;ratioP1;P1;durP2;ratioP2;P2;SDS_P1;SDS_P2;PMS_P1;PMS_P2;Temp;Humidity;BMP_temperature;BMP_pressure;BME280_temperature;BME280_humidity;BME280_pressure;Samples;Min_cycle;Max_cycle;Signal;HPM_P1;HPM_P2
2022/09/14 00:00:22;;;;;;;18.50;10.52;;;;;;;16.02;85.59;100747.66;5074969;28;20050;-62
2022/09/14 00:02:47;;;;;;;19.40;10.10;;;;;;;15.97;85.39;100747.06;5074847;28;20020;-62
2022/09/14 00:05:12;;;;;;;18.48;9.77;;;;;;;15.96;85.58;100743.47;5074307;28;20157;-62
2022/09/14 00:07:38;;;;;;;16.60;9.60;;;;;;;15.96;86.08;100739.84;5074975;28;20365;-62
2022/09/14 00:10:04;;;;;;;17.83;9.65;;;;;;;15.93;85.72;100738.56;5074539;28;20109;-60
2022/09/14 00:12:29;;;;;;;17.80;9.80;;;;;;;15.92;86.01;100736.94;5074511;28;20029;-61
2022/09/14 00:14:54;;;;;;;15.93;9.65;;;;;;;15.89;84.71;100734.84;5056127;28;20021;-61
2022/09/14 00:17:19;;;;;;;16.35;9.85;;;;;;;15.88;85.70;100727.63;5074286;28;20148;-62
2022/09/14 00:19:45;;;;;;;20.33;10.43;;;;;;;15.84;85.31;100721.13;5056312;28;20044;-64
2022/09/14 00:22:10;;;;;;;17.10;9.93;;;;;;;15.81;85.93;100724.56;5057005;28;20125;-62
2022/09/14 00:24:35;;;;;;;18.50;10.30;;;;;;;15.85;86.11;100728.34;5074134;28;20035;-61
2022/09/14 00:27:01;;;;;;;18.63;10.52;;;;;;;15.79;84.73;100727.72;5074171;28;20035;-61
2022/09/14 00:29:27;;;;;;;15.65;9.45;;;;;;;15.74;86.25;100728.75;5073999;28;20016;-62
2022/09/14 00:31:52;;;;;;;17.27;9.80;;;;;;;15.72;86.09;100721.88;5073686;28;20510;-61
2022/09/14 00:34:18;;;;;;;18.73;9.90;;;;;;;15.68;85.36;100718.13;5073822;28;20032;-61
2022/09/14 00:36:46;;;;;;;18.95;9.45;;;;;;;15.64;85.73;100711.59;5074006;28;20252;-62
2022/09/14 00:39:12;;;;;;;17.85;9.80;;;;;;;15.60;85.97;100715.09;5073774;28;20116;-61
2022/09/14 00:41:40;;;;;;;15.57;10.38;;;;;;;15.63;84.76;100716.38;5074072;28;20075;-62
2022/09/14 00:44:07;;;;;;;18.38;10.23;;;;;;;15.53;85.33;100711.25;5074084;28;20051;-62
2022/09/14 00:46:35;;;;;;;20.00;10.32;;;;;;;15.48;86.29;100701.13;5074718;28;20028;-61
2022/09/14 00:49:03;;;;;;;19.23;10.82;;;;;;;15.42;86.48;100699.72;5055920;28;20028;-62
2022/09/14 00:51:31;;;;;;;18.92;10.60;;;;;;;15.44;87.17;100691.81;5074183;28;20025;-62
2022/09/14 00:53:59;;;;;;;20.83;10.70;;;;;;;15.41;87.08;100689.72;5074587;28;20094;-62
2022/09/14 00:56:25;;;;;;;19.05;11.00;;;;;;;15.40;87.21;100683.31;5073546;28;20092;-62
2022/09/14 00:58:53;;;;;;;18.42;11.10;;;;;;;15.36;86.56;100687.13;5072686;28;20128;-62
2022/09/14 01:01:19;;;;;;;19.60;10.93;;;;;;;15.34;86.81;100683.88;5055632;28;20025;-62
2022/09/14 01:03:44;;;;;;;19.13;10.65;;;;;;;15.30;87.25;100672.63;5073439;28;20028;-62
2022/09/14 01:06:25;;;;;;;17.73;10.05;;;;;;;15.24;87.23;100673.97;5073547;28;20028;-62
2022/09/14 01:09:06;;;;;;;17.63;10.63;;;;;;;15.20;87.74;100661.91;5073897;28;20103;-62
2022/09/14 01:11:59;;;;;;;18.25;10.45;;;;;;;15.19;87.40;100665.84;5073827;28;20051;-62
2022/09/14 01:14:34;;;;;;;16.85;10.48;;;;;;;15.11;86.92;100661.97;5072840;28;20396;-62
2022/09/14 01:17:27;;;;;;;16.73;10.20;;;;;;;15.12;88.47;100660.81;5075038;22;20140;-60
2022/09/14 01:20:26;;;;;;;18.30;10.38;;;;;;;15.01;87.38;100645.66;5045409;28;20043;-61
2022/09/14 01:23:08;;;;;;;17.00;10.52;;;;;;;15.09;88.06;100653.94;5051518;28;20254;-60
2022/09/14 01:26:04;;;;;;;19.65;10.80;;;;;;;15.04;87.27;100647.78;5051800;28;20045;-61
2022/09/14 01:28:48;;;;;;;18.17;10.05;;;;;;;14.98;87.70;100644.38;5052193;28;20199;-60
2022/09/14 01:31:23;;;;;;;;;;;;;;;15.12;86.06;100655.22;5052572;28;20025;-60
2022/09/14 01:33:59;;;;;;;18.23;10.80;;;;;;;14.93;88.56;100655.72;5051957;28;19908;-60
2022/09/14 01:36:27;;;;;;;17.95;10.30;;;;;;;14.80;88.47;100644.53;5052103;28;20025;-60
2022/09/14 01:38:54;;;;;;;18.58;10.60;;;;;;;14.81;89.75;100653.69;5052284;28;20037;-60
2022/09/14 01:41:23;;;;;;;17.23;10.02;;;;;;;14.75;89.42;100649.47;5051829;28;20033;-61
2022/09/14 01:43:54;;;;;;;17.77;10.18;;;;;;;14.77;90.18;100655.53;5051989;28;20029;-61
2022/09/14 01:46:32;;;;;;;17.80;9.93;;;;;;;14.72;90.29;100647.38;5052238;28;20151;-59
2022/09/14 01:49:01;;;;;;;18.42;10.40;;;;;;;14.71;91.11;100646.56;5051843;28;20086;-60
2022/09/14 01:51:53;;;;;;;17.33;11.00;;;;;;;14.65;90.23;100659.00;5051478;28;20025;-61
2022/09/14 01:54:29;;;;;;;18.83;10.55;;;;;;;14.67;91.13;100656.75;5051768;28;20334;-60
2022/09/14 01:57:00;;;;;;;20.98;10.68;;;;;;;14.64;91.60;100658.22;5051732;28;20103;-61
2022/09/14 01:59:30;;;;;;;20.17;11.00;;;;;;;14.60;92.22;100642.53;5051462;28;20021;-61
2022/09/14 02:02:15;;;;;;;16.10;10.18;;;;;;;14.58;92.63;100640.09;5051800;28;20048;-59
2022/09/14 02:04:46;;;;;;;17.70;10.27;;;;;;;14.54;93.12;100627.19;5033761;28;20090;-60
2022/09/14 02:07:12;;;;;;;17.33;10.18;;;;;;;14.50;92.93;100627.00;5052139;28;20468;-59
2022/09/14 02:09:38;;;;;;;18.48;10.00;;;;;;;14.57;92.77;100635.66;5050950;28;20048;-60
2022/09/14 02:12:04;;;;;;;18.55;10.85;;;;;;;14.54;92.59;100635.53;5051419;28;20036;-60
2022/09/14 02:14:30;;;;;;;19.00;11.10;;;;;;;14.50;92.52;100635.38;5051247;28;20025;-60
2022/09/14 02:16:55;;;;;;;20.55;11.73;;;;;;;14.56;93.15;100638.78;5051086;28;20053;-60
2022/09/14 02:19:21;;;;;;;19.83;11.43;;;;;;;14.57;92.91;100645.97;5051530;28;20021;-60
2022/09/14 02:21:46;;;;;;;18.60;11.45;;;;;;;14.58;93.16;100642.03;5051569;28;20140;-59
2022/09/14 02:24:13;;;;;;;20.58;11.07;;;;;;;14.56;92.85;100641.56;5051537;28;20349;-59
2022/09/14 02:26:38;;;;;;;17.85;11.38;;;;;;;14.54;93.07;100638.31;5050698;28;20021;-59
2022/09/14 02:29:04;;;;;;;19.35;11.32;;;;;;;14.53;93.38;100637.47;5051328;28;20028;-58
2022/09/14 02:31:32;;;;;;;18.48;10.85;;;;;;;14.56;92.96;100652.69;5050803;28;20029;-59
2022/09/14 02:34:17;;;;;;;18.23;10.98;;;;;;;14.57;92.93;100649.59;5050649;28;20239;-59
2022/09/14 02:36:48;;;;;;;18.65;10.75;;;;;;;14.53;92.62;100648.63;5051708;28;20063;-59
2022/09/14 02:39:24;;;;;;;16.58;10.02;;;;;;;14.56;93.15;100645.16;5050851;28;20032;-61
2022/09/14 02:42:08;;;;;;;19.38;10.60;;;;;;;14.44;93.94;100632.00;5051148;28;20017;-61
2022/09/14 02:44:47;;;;;;;20.10;11.20;;;;;;;14.48;94.12;100635.72;5051218;28;20112;-59
2022/09/14 02:47:29;;;;;;;20.13;10.80;;;;;;;14.44;93.80;100637.56;5050941;28;20036;-59
2022/09/14 02:50:12;;;;;;;21.13;10.93;;;;;;;14.46;94.83;100640.78;5050450;28;20032;-60
2022/09/14 02:52:48;;;;;;;17.83;10.82;;;;;;;14.46;94.87;100642.78;5050555;28;20047;-59
2022/09/14 02:55:18;;;;;;;17.70;10.93;;;;;;;14.40;94.46;100631.03;5050587;28;20025;-60
2022/09/14 02:58:07;;;;;;;17.88;10.50;;;;;;;14.42;94.87;100637.06;5050815;28;20032;-60
2022/09/14 03:00:37;;;;;;;17.45;10.25;;;;;;;14.32;94.33;100626.34;5050401;28;20096;-59
2022/09/14 03:03:05;;;;;;;17.25;10.20;;;;;;;14.37;94.90;100634.47;5050730;28;20120;-61
2022/09/14 03:05:30;;;;;;;18.83;10.35;;;;;;;14.29;95.13;100633.41;5050550;28;20025;-60
2022/09/14 03:07:56;;;;;;;18.70;10.50;;;;;;;14.26;96.10;100630.47;5050801;28;20120;-61
2022/09/14 03:10:21;;;;;;;19.38;10.10;;;;;;;14.22;96.52;100626.72;5050086;28;20040;-61
2022/09/14 03:12:47;;;;;;;22.35;10.45;;;;;;;14.25;96.46;100631.63;5050323;28;20060;-59
2022/09/14 03:15:12;;;;;;;19.08;11.00;;;;;;;14.21;96.95;100625.91;5050658;28;20033;-60
2022/09/14 03:17:37;;;;;;;19.10;10.77;;;;;;;14.20;96.61;100618.72;5050374;28;20045;-60
2022/09/14 03:20:03;;;;;;;19.67;10.60;;;;;;;14.19;96.70;100622.66;5050632;28;20432;-59
2022/09/14 03:22:29;;;;;;;17.83;10.27;;;;;;;14.20;97.29;100619.53;5054248;28;20473;-60
2022/09/14 03:24:54;;;;;;;18.02;10.20;;;;;;;14.20;97.33;100622.31;5054081;28;20108;-60
2022/09/14 03:27:19;;;;;;;18.30;10.57;;;;;;;14.17;97.53;100614.63;5054294;28;20055;-58
2022/09/14 03:29:45;;;;;;;20.20;10.55;;;;;;;14.12;97.92;100614.84;5054089;28;20028;-58
2022/09/14 03:32:11;;;;;;;19.58;10.73;;;;;;;14.12;98.16;100609.28;5054164;28;20094;-58
2022/09/14 03:34:36;;;;;;;18.75;10.50;;;;;;;14.04;97.87;100599.81;5055153;28;20349;-59
2022/09/14 03:37:01;;;;;;;19.70;11.10;;;;;;;14.10;98.43;100614.34;5054657;28;20021;-59
2022/09/14 03:39:27;;;;;;;20.77;10.65;;;;;;;14.02;98.22;100616.03;5053913;28;20083;-60
2022/09/14 03:41:53;;;;;;;18.52;10.15;;;;;;;13.98;98.53;100601.16;5054135;28;20437;-58
2022/09/14 03:44:18;;;;;;;19.40;11.10;;;;;;;13.99;98.75;100601.97;5053967;28;20487;-58
2022/09/14 03:46:43;;;;;;;18.63;10.80;;;;;;;13.99;98.95;100590.84;5054190;28;20036;-60
2022/09/14 03:49:09;;;;;;;20.15;10.95;;;;;;;13.98;98.91;100584.47;5053992;28;20017;-59
2022/09/14 03:51:34;;;;;;;19.50;11.07;;;;;;;13.96;98.89;100586.78;5054495;28;20491;-60
2022/09/14 03:53:59;;;;;;;18.35;10.70;;;;;;;13.92;98.80;100590.56;5054466;28;20032;-60
2022/09/14 03:56:25;;;;;;;18.40;10.57;;;;;;;13.97;98.98;100590.38;5054650;28;20535;-60
2022/09/14 03:58:50;;;;;;;20.10;11.27;;;;;;;13.98;98.69;100583.69;5052864;28;20052;-60
2022/09/14 04:01:19;;;;;;;18.75;10.50;;;;;;;13.89;98.82;100567.84;5053720;28;20060;-60
2022/09/14 04:03:45;;;;;;;19.17;11.10;;;;;;;13.92;98.95;100574.72;5054349;28;20025;-60
2022/09/14 04:06:11;;;;;;;16.60;9.93;;;;;;;13.94;98.99;100577.94;5053885;28;20068;-60
2022/09/14 04:08:40;;;;;;;18.77;9.88;;;;;;;13.90;99.07;100560.31;5053681;28;20056;-59
2022/09/14 04:11:13;;;;;;;20.58;9.73;;;;;;;13.94;98.20;100566.81;5053193;28;20071;-59
2022/09/14 04:13:39;;;;;;;16.55;9.35;;;;;;;13.93;97.78;100559.66;5053739;28;20060;-58
2022/09/14 04:16:05;;;;;;;18.75;9.35;;;;;;;13.85;97.63;100564.09;5053698;28;20481;-61
2022/09/14 04:18:31;;;;;;;15.15;9.32;;;;;;;13.84;97.89;100561.63;5053458;28;20106;-59
2022/09/14 04:21:01;;;;;;;17.52;9.65;;;;;;;13.82;97.99;100561.19;5053225;28;20251;-60
2022/09/14 04:23:26;;;;;;;17.17;9.77;;;;;;;13.80;98.21;100563.47;5053872;28;20060;-58
2022/09/14 04:25:52;;;;;;;16.90;10.30;;;;;;;13.72;97.96;100562.38;5053158;28;20441;-58
2022/09/14 04:28:18;;;;;;;16.77;9.50;;;;;;;13.71;98.44;100555.16;5035197;28;20031;-59
2022/09/14 04:30:43;;;;;;;18.95;10.07;;;;;;;13.68;98.29;100559.44;5053203;28;20037;-59
2022/09/14 04:33:09;;;;;;;17.50;9.55;;;;;;;13.71;98.61;100556.00;5051661;28;20379;-60
2022/09/14 04:35:36;;;;;;;17.08;9.90;;;;;;;13.71;98.72;100549.59;5053571;28;20542;-60
2022/09/14 04:38:02;;;;;;;16.45;9.27;;;;;;;13.76;98.37;100552.22;5053761;28;20037;-61
2022/09/14 04:40:28;;;;;;;16.42;9.45;;;;;;;13.77;98.17;100544.69;5053549;28;20083;-59
2022/09/14 04:42:53;;;;;;;17.50;10.00;;;;;;;13.80;98.10;100547.59;5053490;28;20025;-61
2022/09/14 04:45:18;;;;;;;16.85;10.00;;;;;;;13.80;97.93;100550.38;5052864;28;20036;-60
2022/09/14 04:47:43;;;;;;;18.23;10.57;;;;;;;13.76;97.54;100541.09;5053473;28;20091;-60
2022/09/14 04:50:09;;;;;;;18.58;9.70;;;;;;;13.75;98.51;100555.31;5053508;28;20025;-60
2022/09/14 04:52:34;;;;;;;16.95;10.40;;;;;;;13.72;98.61;100560.41;5052796;28;20028;-59
2022/09/14 04:54:59;;;;;;;19.67;9.95;;;;;;;13.73;98.67;100550.09;5052835;28;20156;-60
2022/09/14 04:57:25;;;;;;;20.70;10.80;;;;;;;13.78;99.06;100543.53;5053070;28;20208;-59
2022/09/14 04:59:50;;;;;;;18.95;10.60;;;;;;;13.81;99.26;100542.88;5052225;28;20029;-60
2022/09/14 05:02:15;;;;;;;17.10;10.85;;;;;;;13.86;98.92;100537.94;5052100;28;20025;-59
2022/09/14 05:04:41;;;;;;;19.35;11.48;;;;;;;13.87;99.25;100534.00;5052170;28;20021;-60
2022/09/14 05:07:06;;;;;;;19.70;11.70;;;;;;;13.85;99.02;100530.75;5052571;28;20025;-60
2022/09/14 05:09:32;;;;;;;20.05;11.52;;;;;;;13.84;99.30;100528.28;5052113;28;20032;-59
2022/09/14 05:11:57;;;;;;;18.95;10.88;;;;;;;13.86;98.78;100528.75;5052877;28;20021;-59
2022/09/14 05:14:22;;;;;;;17.67;10.98;;;;;;;13.87;98.63;100520.09;5051998;28;20029;-59
2022/09/14 05:16:47;;;;;;;18.13;10.80;;;;;;;13.89;98.67;100509.44;5034052;28;20536;-60
2022/09/14 05:19:16;;;;;;;20.10;10.65;;;;;;;13.80;98.73;100511.47;5052401;28;20024;-61
2022/09/14 05:21:42;;;;;;;18.85;11.13;;;;;;;13.86;98.87;100523.19;5053378;28;20092;-61
2022/09/14 05:24:13;;;;;;;17.85;11.23;;;;;;;13.83;100.00;100527.47;5053072;28;20044;-61
2022/09/14 05:26:39;;;;;;;18.33;10.77;;;;;;;13.80;99.44;100525.34;5052784;28;20455;-60
2022/09/14 05:29:05;;;;;;;19.20;11.90;;;;;;;13.77;99.31;100525.22;5052799;28;20033;-61
2022/09/14 05:31:31;;;;;;;22.15;11.32;;;;;;;13.77;99.67;100528.00;5053225;28;20032;-62
2022/09/14 05:33:57;;;;;;;20.73;11.27;;;;;;;13.77;100.00;100533.56;5052073;28;20115;-61
2022/09/14 05:36:23;;;;;;;20.52;11.68;;;;;;;13.78;99.91;100530.47;5052448;28;20021;-60
2022/09/14 05:38:48;;;;;;;20.25;11.80;;;;;;;13.75;99.62;100542.25;5052870;28;20147;-61
2022/09/14 05:41:15;;;;;;;20.17;11.32;;;;;;;13.79;100.00;100539.59;5052513;28;20033;-60
2022/09/14 05:43:40;;;;;;;19.13;12.00;;;;;;;13.80;100.00;100541.25;5052592;28;20095;-61
2022/09/14 05:46:12;;;;;;;20.55;12.07;;;;;;;13.73;100.00;100534.25;5052173;28;20477;-59
2022/09/14 05:48:38;;;;;;;22.20;11.73;;;;;;;13.86;100.00;100548.22;5052237;28;20500;-60
2022/09/14 05:51:10;;;;;;;20.10;10.75;;;;;;;13.84;100.00;100544.97;5052589;28;20108;-61
2022/09/14 05:53:35;;;;;;;20.08;11.52;;;;;;;13.84;99.22;100548.56;5052495;28;20025;-60
2022/09/14 05:56:07;;;;;;;21.00;11.57;;;;;;;13.82;99.91;100552.84;5052434;28;20167;-59
2022/09/14 05:58:34;;;;;;;18.60;11.68;;;;;;;13.76;100.00;100551.38;5034471;28;20025;-60
2022/09/14 06:01:15;;;;;;;20.08;11.80;;;;;;;13.72;100.00;100554.03;5052417;28;20021;-60
2022/09/14 06:03:41;;;;;;;20.35;11.73;;;;;;;13.69;100.00;100554.72;5052397;28;20078;-61
2022/09/14 06:06:09;;;;;;;20.17;11.80;;;;;;;13.66;100.00;100536.72;5052396;28;20082;-60
2022/09/14 06:08:35;;;;;;;21.52;11.95;;;;;;;13.77;100.00;100553.84;5052493;28;20035;-61
2022/09/14 06:11:06;;;;;;;20.13;11.90;;;;;;;13.70;100.00;100543.25;5052355;28;20025;-61
2022/09/14 06:13:32;;;;;;;19.52;12.25;;;;;;;13.76;100.00;100548.59;5052409;28;20108;-60
2022/09/14 06:16:04;;;;;;;20.60;12.00;;;;;;;13.79;100.00;100554.31;5052444;28;20104;-61
2022/09/14 06:18:31;;;;;;;21.00;11.38;;;;;;;13.86;100.00;100549.06;5033930;28;20350;-60
2022/09/14 06:20:56;;;;;;;19.75;10.77;;;;;;;13.91;100.00;100550.00;5051866;28;20059;-59
2022/09/14 06:23:22;;;;;;;20.55;11.18;;;;;;;13.93;100.00;100544.91;5031512;28;20060;-59
2022/09/14 06:25:47;;;;;;;18.83;11.45;;;;;;;13.93;100.00;100540.19;5030331;28;20025;-58
2022/09/14 06:28:12;;;;;;;20.85;10.77;;;;;;;13.97;100.00;100545.88;5030058;28;20095;-61
2022/09/14 06:30:41;;;;;;;20.80;11.43;;;;;;;13.95;100.00;100545.41;5029831;28;20041;-61
2022/09/14 06:33:07;;;;;;;20.02;10.45;;;;;;;13.96;100.00;100550.63;5028993;28;20508;-59
2022/09/14 06:35:32;;;;;;;19.77;10.50;;;;;;;13.95;100.00;100553.75;5028362;28;20029;-61
2022/09/14 06:37:57;;;;;;;20.13;10.43;;;;;;;13.94;100.00;100555.69;5028608;28;20033;-61
2022/09/14 06:40:22;;;;;;;18.23;10.82;;;;;;;14.00;100.00;100545.19;5028697;28;20036;-60
2022/09/14 06:42:48;;;;;;;19.75;10.80;;;;;;;14.07;100.00;100544.66;5045199;28;20033;-60
2022/09/14 06:45:13;;;;;;;22.23;12.23;;;;;;;14.12;100.00;100544.50;5037806;28;20487;-60
2022/09/14 06:47:39;;;;;;;26.27;15.32;;;;;;;14.18;100.00;100538.38;5031655;28;20037;-59
2022/09/14 06:50:04;;;;;;;20.80;11.55;;;;;;;14.17;100.00;100544.28;5030959;28;20037;-59
2022/09/14 06:52:30;;;;;;;18.40;10.02;;;;;;;14.17;100.00;100538.72;5030117;28;20025;-60
2022/09/14 06:54:55;;;;;;;20.67;11.50;;;;;;;14.20;100.00;100536.06;5031222;28;20418;-60
2022/09/14 06:57:20;;;;;;;20.10;11.40;;;;;;;14.22;100.00;100530.16;5031562;28;20025;-61
2022/09/14 06:59:46;;;;;;;19.50;10.63;;;;;;;14.21;100.00;100534.13;5031734;28;20381;-61
2022/09/14 07:02:12;;;;;;;18.73;10.95;;;;;;;14.15;100.00;100521.53;5031829;28;20109;-61
2022/09/14 07:04:38;;;;;;;24.77;13.05;;;;;;;14.25;100.00;100537.03;5031391;28;20482;-60
2022/09/14 07:07:03;;;;;;;21.80;11.50;;;;;;;14.23;100.00;100536.53;5031644;28;20036;-60
2022/09/14 07:09:30;;;;;;;20.00;11.00;;;;;;;14.24;100.00;100529.84;5032068;28;20032;-61
2022/09/14 07:11:55;;;;;;;19.05;10.75;;;;;;;14.28;100.00;100533.56;5032016;28;20026;-61
2022/09/14 07:14:20;;;;;;;21.80;10.98;;;;;;;14.30;100.00;100534.03;5031812;28;20048;-61
2022/09/14 07:16:46;;;;;;;19.08;10.68;;;;;;;14.30;100.00;100534.03;5031530;28;20057;-60
2022/09/14 07:19:13;;;;;;;21.63;11.32;;;;;;;14.33;100.00;100531.38;5031610;28;20039;-61
2022/09/14 07:21:39;;;;;;;18.63;10.80;;;;;;;14.31;100.00;100524.53;5031537;28;20089;-61
2022/09/14 07:24:05;;;;;;;20.00;11.60;;;;;;;14.25;100.00;100520.34;5031619;28;20029;-60
2022/09/14 07:26:34;;;;;;;19.33;11.13;;;;;;;14.12;100.00;100506.34;5031818;28;20044;-60
2022/09/14 07:29:05;;;;;;;18.35;11.10;;;;;;;14.14;100.00;100523.53;5031494;28;20025;-60
2022/09/14 07:31:37;;;;;;;20.67;12.05;;;;;;;14.07;100.00;100517.69;5031588;28;20462;-60
2022/09/14 07:34:03;;;;;;;19.75;11.38;;;;;;;14.11;100.00;100532.53;5031521;28;20061;-60
2022/09/14 07:36:31;;;;;;;21.00;12.02;;;;;;;14.10;100.00;100527.31;5031343;28;20523;-60
2022/09/14 07:38:56;;;;;;;22.08;11.43;;;;;;;14.04;100.00;100530.28;5031403;28;20057;-60
2022/09/14 07:41:24;;;;;;;20.33;11.18;;;;;;;13.91;100.00;100516.63;5031698;28;20059;-61
2022/09/14 07:43:56;;;;;;;19.63;12.13;;;;;;;13.95;100.00;100523.16;5031285;28;20044;-60
2022/09/14 07:46:22;;;;;;;22.30;12.88;;;;;;;13.98;100.00;100520.50;5031455;28;20030;-60
2022/09/14 07:48:53;;;;;;;20.40;11.63;;;;;;;13.97;100.00;100520.88;5031329;28;20059;-60
2022/09/14 07:51:18;;;;;;;19.52;11.48;;;;;;;14.00;100.00;100515.44;5031297;28;20022;-60
2022/09/14 07:53:44;;;;;;;21.75;11.55;;;;;;;14.06;100.00;100507.72;5031141;28;20021;-60
2022/09/14 07:56:12;;;;;;;20.40;11.57;;;;;;;14.08;100.00;100505.38;5031365;28;20115;-60
2022/09/14 07:58:38;;;;;;;22.58;13.20;;;;;;;14.24;100.00;100511.16;5031189;28;20036;-60
2022/09/14 08:01:07;;;;;;;20.17;11.73;;;;;;;14.23;100.00;100505.94;5031241;28;20022;-60
2022/09/14 08:03:33;;;;;;;20.33;12.10;;;;;;;14.25;100.00;100517.56;5031642;28;20026;-60
2022/09/14 08:06:04;;;;;;;21.23;12.90;;;;;;;14.13;100.00;100507.97;5031347;28;20034;-61
2022/09/14 08:08:31;;;;;;;22.13;12.52;;;;;;;14.19;100.00;100516.94;5034497;28;20026;-61
2022/09/14 08:11:25;;;;;;;23.17;13.30;;;;;;;14.27;100.00;100520.78;5034745;28;20053;-61
2022/09/14 08:13:56;;;;;;;20.60;11.65;;;;;;;14.24;100.00;100515.94;5031274;28;20034;-60
2022/09/14 08:16:23;;;;;;;21.75;11.90;;;;;;;14.22;100.00;100510.69;5035229;28;20037;-60
2022/09/14 08:18:53;;;;;;;20.23;12.18;;;;;;;14.24;100.00;100502.00;5034578;28;20497;-63
2022/09/14 08:21:18;;;;;;;20.63;11.63;;;;;;;14.29;100.00;100508.19;5035004;28;20351;-60
2022/09/14 08:23:44;;;;;;;20.40;12.05;;;;;;;14.24;100.00;100504.78;5034747;28;20031;-59
2022/09/14 08:26:13;;;;;;;20.38;11.93;;;;;;;14.29;100.00;100510.13;5034628;28;20036;-60
2022/09/14 08:28:38;;;;;;;19.35;11.02;;;;;;;14.25;100.00;100510.00;5034633;28;20033;-60
2022/09/14 08:31:06;;;;;;;19.27;10.75;;;;;;;14.24;100.00;100499.22;5034832;28;20021;-60
2022/09/14 08:33:33;;;;;;;20.38;11.30;;;;;;;14.29;100.00;100499.00;5034788;28;20036;-60
2022/09/14 08:35:59;;;;;;;19.95;11.00;;;;;;;14.43;100.00;100516.25;5016787;28;20032;-60
2022/09/14 08:38:24;;;;;;;18.23;10.73;;;;;;;14.46;99.57;100511.97;5034529;28;20029;-60
2022/09/14 08:40:50;;;;;;;19.58;10.48;;;;;;;14.47;99.21;100510.81;5016851;28;20030;-60
2022/09/14 08:43:18;;;;;;;19.88;10.77;;;;;;;14.49;99.99;100495.41;5034636;28;20029;-60
2022/09/14 08:45:46;;;;;;;19.33;11.27;;;;;;;14.57;99.61;100515.97;5034710;28;20033;-61
2022/09/14 08:48:34;;;;;;;20.13;10.52;;;;;;;14.64;99.05;100513.44;5034531;28;20090;-61
2022/09/14 08:51:02;;;;;;;23.13;15.95;;;;;;;14.72;99.78;100520.13;5034154;28;20472;-60
2022/09/14 08:53:27;;;;;;;20.98;12.15;;;;;;;14.70;99.05;100516.84;5034090;28;20127;-61
2022/09/14 08:56:01;;;;;;;19.77;11.48;;;;;;;14.63;96.90;100511.00;5034288;28;20104;-60
2022/09/14 08:59:03;;;;;;;19.20;10.90;;;;;;;14.65;97.27;100520.63;5034238;28;20473;-61
2022/09/14 09:01:37;;;;;;;21.30;11.75;;;;;;;14.65;98.22;100520.63;5033933;28;20036;-61
2022/09/14 09:04:35;;;;;;;22.63;12.00;;;;;;;14.69;99.25;100523.59;5034065;28;20473;-59
2022/09/14 09:07:23;;;;;;;21.13;11.40;;;;;;;14.76;99.38;100520.25;5034000;28;20463;-60
2022/09/14 09:09:51;;;;;;;18.30;11.23;;;;;;;14.80;98.94;100526.75;5015995;28;20522;-60
2022/09/14 09:12:27;;;;;;;22.08;11.75;;;;;;;14.80;98.28;100526.75;5034011;28;20029;-59
2022/09/14 09:14:57;;;;;;;22.13;11.50;;;;;;;14.76;99.05;100518.25;5033680;28;20449;-60
2022/09/14 09:17:38;;;;;;;20.25;11.00;;;;;;;14.80;98.08;100535.09;5015554;28;20414;-60
2022/09/14 09:20:12;;;;;;;19.90;11.60;;;;;;;14.81;98.46;100533.94;5032923;28;20040;-60
2022/09/14 09:22:52;;;;;;;23.27;12.50;;;;;;;14.78;99.55;100521.53;5033732;28;20033;-60
2022/09/14 09:25:23;;;;;;;19.75;11.27;;;;;;;14.75;98.61;100516.63;5033388;28;20449;-60
2022/09/14 09:27:52;;;;;;;23.30;13.25;;;;;;;14.78;98.91;100523.50;5033540;28;20438;-61
2022/09/14 09:30:18;;;;;;;19.58;12.32;;;;;;;14.72;98.88;100524.84;5033262;28;20057;-60
2022/09/14 09:32:43;;;;;;;26.00;19.83;;;;;;;14.70;99.35;100528.00;5033236;28;20480;-61
2022/09/14 09:35:14;;;;;;;21.10;12.65;;;;;;;14.66;100.00;100508.38;5015882;28;20057;-61
2022/09/14 09:37:40;;;;;;;21.23;13.00;;;;;;;14.73;99.73;100526.50;5033345;28;20029;-59
2022/09/14 09:40:18;;;;;;;19.95;12.30;;;;;;;14.69;100.00;100515.22;5033217;28;20091;-60
2022/09/14 09:43:07;;;;;;;20.98;12.30;;;;;;;14.77;100.00;100524.66;5033075;28;20110;-59
2022/09/14 09:45:52;;;;;;;21.13;12.05;;;;;;;14.74;100.00;100508.63;5033113;28;20027;-60
2022/09/14 09:48:20;;;;;;;20.95;11.98;;;;;;;14.74;99.93;100515.00;5033112;28;20084;-60
2022/09/14 09:50:50;;;;;;;21.38;12.40;;;;;;;14.77;100.00;100513.53;5032835;28;20474;-60
2022/09/14 09:53:17;;;;;;;20.73;12.73;;;;;;;14.85;100.00;100522.94;5032760;28;20444;-60
2022/09/14 09:55:47;;;;;;;21.05;12.77;;;;;;;14.82;100.00;100518.88;5032689;28;20025;-60
2022/09/14 09:58:22;;;;;;;20.08;12.23;;;;;;;14.80;100.00;100521.16;5032986;28;20032;-61
2022/09/14 10:00:59;;;;;;;21.52;12.85;;;;;;;14.83;100.00;100514.94;5032794;28;20052;-61
2022/09/14 10:03:31;;;;;;;19.00;12.35;;;;;;;14.85;99.70;100503.44;5015086;28;20452;-60
2022/09/14 10:06:11;;;;;;;23.08;13.18;;;;;;;14.86;100.00;100493.94;5032691;28;20037;-60
2022/09/14 10:08:45;;;;;;;24.88;13.10;;;;;;;14.88;100.00;100499.97;5032619;28;20036;-60
2022/09/14 10:11:28;;;;;;;;;;;;;;;14.98;100.00;100499.53;5033021;28;20022;-60
2022/09/14 10:13:54;;;;;;;21.48;12.57;;;;;;;14.94;100.00;100498.59;5032686;28;19909;-60
2022/09/14 10:16:19;;;;;;;20.80;13.57;;;;;;;14.97;100.00;100509.84;5032368;28;20037;-60
2022/09/14 10:18:50;;;;;;;22.10;13.25;;;;;;;15.02;100.00;100503.25;5032145;28;20139;-60
2022/09/14 10:21:25;;;;;;;20.95;13.23;;;;;;;15.08;100.00;100501.06;5032377;28;20101;-60
2022/09/14 10:24:15;;;;;;;21.17;13.30;;;;;;;15.13;99.67;100500.84;5032232;28;20017;-60
2022/09/14 10:26:41;;;;;;;21.73;13.82;;;;;;;15.15;99.04;100500.50;5032254;28;20033;-60
2022/09/14 10:29:21;;;;;;;21.50;13.60;;;;;;;15.28;100.00;100499.34;5032097;28;20033;-61
2022/09/14 10:31:48;;;;;;;21.00;13.80;;;;;;;15.44;99.85;100505.06;5031477;28;20072;-60
2022/09/14 10:34:19;;;;;;;19.77;13.10;;;;;;;15.50;100.00;100488.91;5032068;28;20048;-60
2022/09/14 10:36:54;;;;;;;21.70;13.15;;;;;;;15.72;100.00;100501.56;5014303;28;20155;-60
2022/09/14 10:39:36;;;;;;;20.65;12.55;;;;;;;15.68;98.71;100486.69;5031894;28;20026;-60
2022/09/14 10:42:37;;;;;;;21.23;13.30;;;;;;;15.83;97.31;100499.91;5032236;28;20064;-60
2022/09/14 10:45:19;;;;;;;21.23;13.23;;;;;;;15.81;97.37;100499.47;5000725;28;20071;-60
2022/09/14 10:48:12;;;;;;;23.58;14.25;;;;;;;15.88;98.19;100499.72;5031965;28;20454;-60
2022/09/14 10:50:44;;;;;;;20.63;12.48;;;;;;;15.80;95.17;100480.28;5032041;28;20108;-61
2022/09/14 10:53:40;;;;;;;19.00;11.55;;;;;;;15.86;93.77;100504.03;5031973;28;20485;-64
2022/09/14 10:56:44;;;;;;;20.48;11.57;;;;;;;15.83;92.80;100485.97;5032196;28;20041;-62
2022/09/14 10:59:18;;;;;;;21.35;11.38;;;;;;;15.82;93.46;100500.28;4932536;29;20409;-61
2022/09/14 11:02:18;;;;;;;20.92;11.38;;;;;;;15.81;93.89;100499.47;5016831;28;20111;-61
2022/09/14 11:05:04;;;;;;;21.10;12.50;;;;;;;15.71;94.20;100491.59;4997903;28;20378;-60
2022/09/14 11:07:36;;;;;;;23.20;14.68;;;;;;;15.77;94.79;100492.16;5031905;28;20034;-60
2022/09/14 11:10:23;;;;;;;21.67;11.50;;;;;;;15.71;94.02;100492.38;5031460;28;20465;-60
2022/09/14 11:12:57;;;;;;;20.67;12.07;;;;;;;15.69;94.31;100496.69;5031553;28;20079;-60
2022/09/14 11:16:04;;;;;;;20.63;11.45;;;;;;;15.60;93.89;100486.47;5031519;28;20120;-60
2022/09/14 11:18:57;;;;;;;18.60;11.52;;;;;;;15.58;93.66;100496.34;5031218;28;20053;-60
2022/09/14 11:21:50;;;;;;;20.30;10.93;;;;;;;15.55;92.65;100495.06;5031687;28;20084;-61